sensor_id;sensor_type;location;lat;lon;timestamp;P1;durP1;ratioP1;P2;durP2;ratioP2
6823;SDS011;58633;49.470;11.004;2022-08-11T00:00:32;5.93;;;2.67;;
6823;SDS011;58633;49.470;11.004;2022-08-11T00:03:04;3.33;;;2.70;;
6823;SDS011;58633;49.470;11.004;2022-08-11T00:05:44;2.90;;;2.60;;
6823;SDS011;58633;49.470;11.004;2022-08-11T00:08:19;3.88;;;3.10;;
6823;SDS011;58633;49.470;11.004;2022-08-11T00:10:50;5.82;;;3.08;;
6823;SDS011;58633;49.470;11.004;2022-08-11T00:13:18;6.95;;;3.60;;
6823;SDS011;58633;49.470;11.004;2022-08-11T00:15:44;5.53;;;2.90;;
6823;SDS011;58633;49.470;11.004;2022-08-11T00:18:11;2.92;;;2.72;;
6823;SDS011;58633;49.470;11.004;2022-08-11T00:20:39;5.00;;;2.70;;
6823;SDS011;58633;49.470;11.004;2022-08-11T00:23:08;3.03;;;2.70;;
6823;SDS011;58633;49.470;11.004;2022-08-11T00:25:37;3.60;;;2.83;;
6823;SDS011;58633;49.470;11.004;2022-08-11T00:28:21;3.40;;;2.95;;
6823;SDS011;58633;49.470;11.004;2022-08-11T00:30:51;2.80;;;2.60;;
6823;SDS011;58633;49.470;11.004;2022-08-11T00:33:22;3.58;;;3.00;;
6823;SDS011;58633;49.470;11.004;2022-08-11T00:35:57;7.63;;;3.10;;
6823;SDS011;58633;49.470;11.004;2022-08-11T00:38:27;2.75;;;2.50;;
6823;SDS011;58633;49.470;11.004;2022-08-11T00:46:46;4.68;;;3.05;;
6823;SDS011;58633;49.470;11.004;2022-08-11T00:49:17;3.42;;;3.10;;
6823;SDS011;58633;49.470;11.004;2022-08-11T00:54:58;3.20;;;2.85;;
6823;SDS011;58633;49.470;11.004;2022-08-11T01:00:23;4.05;;;2.85;;
6823;SDS011;58633;49.470;11.004;2022-08-11T01:20:09;3.38;;;3.08;;
6823;SDS011;58633;49.470;11.004;2022-08-11T01:31:35;3.38;;;3.08;;
6823;SDS011;58633;49.470;11.004;2022-08-11T01:36:59;3.83;;;2.83;;
6823;SDS011;58633;49.470;11.004;2022-08-11T01:46:03;3.00;;;2.72;;
6823;SDS011;58633;49.470;11.004;2022-08-11T01:48:40;4.47;;;3.03;;
6823;SDS011;58633;49.470;11.004;2022-08-11T01:51:45;4.40;;;3.00;;
6823;SDS011;58633;49.470;11.004;2022-08-11T01:54:30;7.93;;;3.00;;
6823;SDS011;58633;49.470;11.004;2022-08-11T01:56:59;4.20;;;3.17;;
6823;SDS011;58633;49.470;11.004;2022-08-11T01:59:37;3.28;;;2.85;;
6823;SDS011;58633;49.470;11.004;2022-08-11T02:08:20;2.97;;;2.78;;
6823;SDS011;58633;49.470;11.004;2022-08-11T02:11:57;3.40;;;3.10;;
6823;SDS011;58633;49.470;11.004;2022-08-11T02:19:47;3.33;;;3.10;;
6823;SDS011;58633;49.470;11.004;2022-08-11T02:23:08;3.72;;;3.20;;
6823;SDS011;58633;49.470;11.004;2022-08-11T02:26:06;5.38;;;3.20;;
6823;SDS011;58633;49.470;11.004;2022-08-11T02:32:06;3.60;;;3.08;;
6823;SDS011;58633;49.470;11.004;2022-08-11T02:35:18;5.15;;;3.10;;
6823;SDS011;58633;49.470;11.004;2022-08-11T02:41:15;5.15;;;3.03;;
6823;SDS011;58633;49.470;11.004;2022-08-11T02:44:26;2.60;;;2.50;;
6823;SDS011;58633;49.470;11.004;2022-08-11T02:49:43;3.45;;;2.70;;
6823;SDS011;58633;49.470;11.004;2022-08-11T02:57:29;4.88;;;3.20;;
6823;SDS011;58633;49.470;11.004;2022-08-11T03:00:08;4.00;;;3.10;;
6823;SDS011;58633;49.470;11.004;2022-08-11T03:10:59;7.53;;;3.30;;
6823;SDS011;58633;49.470;11.004;2022-08-11T03:22:50;5.57;;;3.05;;
6823;SDS011;58633;49.470;11.004;2022-08-11T03:25:28;6.13;;;3.88;;
6823;SDS011;58633;49.470;11.004;2022-08-11T03:28:28;3.13;;;2.80;;
6823;SDS011;58633;49.470;11.004;2022-08-11T03:34:22;4.93;;;3.10;;
6823;SDS011;58633;49.470;11.004;2022-08-11T03:42:06;3.28;;;2.97;;
6823;SDS011;58633;49.470;11.004;2022-08-11T03:45:30;3.40;;;3.03;;
6823;SDS011;58633;49.470;11.004;2022-08-11T03:47:44;3.10;;;2.80;;
6823;SDS011;58633;49.470;11.004;2022-08-11T03:58:56;3.72;;;3.28;;
6823;SDS011;58633;49.470;11.004;2022-08-11T04:05:25;3.55;;;3.25;;
6823;SDS011;58633;49.470;11.004;2022-08-11T04:17:00;3.85;;;3.40;;
6823;SDS011;58633;49.470;11.004;2022-08-11T04:22:59;6.43;;;3.85;;
6823;SDS011;58633;49.470;11.004;2022-08-11T04:48:47;5.25;;;3.50;;
6823;SDS011;58633;49.470;11.004;2022-08-11T04:51:45;5.82;;;3.40;;
6823;SDS011;58633;49.470;11.004;2022-08-11T04:58:03;4.20;;;3.70;;
6823;SDS011;58633;49.470;11.004;2022-08-11T05:01:25;5.57;;;3.55;;
6823;SDS011;58633;49.470;11.004;2022-08-11T05:12:48;6.30;;;3.20;;
6823;SDS011;58633;49.470;11.004;2022-08-11T05:15:20;3.88;;;2.90;;
6823;SDS011;58633;49.470;11.004;2022-08-11T05:18:17;6.32;;;3.50;;
6823;SDS011;58633;49.470;11.004;2022-08-11T05:21:06;4.07;;;2.95;;
6823;SDS011;58633;49.470;11.004;2022-08-11T05:23:55;4.20;;;3.15;;
6823;SDS011;58633;49.470;11.004;2022-08-11T05:26:46;3.65;;;3.30;;
6823;SDS011;58633;49.470;11.004;2022-08-11T05:32:35;4.63;;;3.17;;
6823;SDS011;58633;49.470;11.004;2022-08-11T05:35:35;6.32;;;3.63;;
6823;SDS011;58633;49.470;11.004;2022-08-11T05:38:09;6.03;;;3.10;;
6823;SDS011;58633;49.470;11.004;2022-08-11T05:41:06;4.65;;;3.08;;
6823;SDS011;58633;49.470;11.004;2022-08-11T05:43:51;3.60;;;2.92;;
6823;SDS011;58633;49.470;11.004;2022-08-11T05:46:38;5.85;;;3.13;;
6823;SDS011;58633;49.470;11.004;2022-08-11T05:49:28;8.02;;;3.30;;
6823;SDS011;58633;49.470;11.004;2022-08-11T05:52:16;3.95;;;3.05;;
6823;SDS011;58633;49.470;11.004;2022-08-11T05:55:04;4.93;;;3.25;;
6823;SDS011;58633;49.470;11.004;2022-08-11T05:57:54;4.60;;;3.38;;
6823;SDS011;58633;49.470;11.004;2022-08-11T06:00:41;5.32;;;2.90;;
6823;SDS011;58633;49.470;11.004;2022-08-11T06:03:09;4.25;;;3.85;;
6823;SDS011;58633;49.470;11.004;2022-08-11T06:05:37;3.90;;;3.03;;
6823;SDS011;58633;49.470;11.004;2022-08-11T06:08:06;5.90;;;3.38;;
6823;SDS011;58633;49.470;11.004;2022-08-11T06:10:34;5.57;;;3.15;;
6823;SDS011;58633;49.470;11.004;2022-08-11T06:13:01;3.90;;;3.10;;
6823;SDS011;58633;49.470;11.004;2022-08-11T06:15:29;4.50;;;3.38;;
6823;SDS011;58633;49.470;11.004;2022-08-11T06:17:58;4.93;;;2.60;;
6823;SDS011;58633;49.470;11.004;2022-08-11T06:20:25;3.50;;;3.15;;
6823;SDS011;58633;49.470;11.004;2022-08-11T06:22:57;2.85;;;2.65;;
6823;SDS011;58633;49.470;11.004;2022-08-11T06:25:29;3.78;;;3.10;;
6823;SDS011;58633;49.470;11.004;2022-08-11T06:27:57;2.90;;;2.65;;
6823;SDS011;58633;49.470;11.004;2022-08-11T06:33:17;3.90;;;3.03;;
6823;SDS011;58633;49.470;11.004;2022-08-11T06:38:40;3.33;;;2.60;;
6823;SDS011;58633;49.470;11.004;2022-08-11T06:41:51;6.10;;;2.90;;
6823;SDS011;58633;49.470;11.004;2022-08-11T06:46:37;3.28;;;2.97;;
6823;SDS011;58633;49.470;11.004;2022-08-11T06:49:10;4.75;;;2.85;;
6823;SDS011;58633;49.470;11.004;2022-08-11T06:51:57;6.90;;;2.90;;
6823;SDS011;58633;49.470;11.004;2022-08-11T06:54:27;5.82;;;2.65;;
6823;SDS011;58633;49.470;11.004;2022-08-11T06:56:56;4.03;;;3.17;;
6823;SDS011;58633;49.470;11.004;2022-08-11T06:59:52;3.13;;;2.70;;
6823;SDS011;58633;49.470;11.004;2022-08-11T07:02:42;4.68;;;3.35;;
6823;SDS011;58633;49.470;11.004;2022-08-11T07:05:18;5.35;;;2.95;;
6823;SDS011;58633;49.470;11.004;2022-08-11T07:14:31;4.18;;;3.38;;
6823;SDS011;58633;49.470;11.004;2022-08-11T07:17:21;4.90;;;2.78;;
6823;SDS011;58633;49.470;11.004;2022-08-11T07:19:54;3.75;;;2.67;;
6823;SDS011;58633;49.470;11.004;2022-08-11T07:22:42;4.63;;;2.97;;
6823;SDS011;58633;49.470;11.004;2022-08-11T07:25:40;3.30;;;2.67;;
6823;SDS011;58633;49.470;11.004;2022-08-11T07:28:27;4.20;;;2.70;;
6823;SDS011;58633;49.470;11.004;2022-08-11T07:31:20;3.63;;;3.10;;
6823;SDS011;58633;49.470;11.004;2022-08-11T07:33:59;4.57;;;2.53;;
6823;SDS011;58633;49.470;11.004;2022-08-11T07:36:53;3.80;;;3.50;;
6823;SDS011;58633;49.470;11.004;2022-08-11T07:39:23;4.30;;;2.70;;
6823;SDS011;58633;49.470;11.004;2022-08-11T07:41:52;4.10;;;2.67;;
6823;SDS011;58633;49.470;11.004;2022-08-11T07:44:19;3.90;;;2.63;;
6823;SDS011;58633;49.470;11.004;2022-08-11T07:46:49;3.45;;;2.75;;
6823;SDS011;58633;49.470;11.004;2022-08-11T07:49:38;8.32;;;3.00;;
6823;SDS011;58633;49.470;11.004;2022-08-11T07:52:24;3.28;;;2.30;;
6823;SDS011;58633;49.470;11.004;2022-08-11T07:55:01;6.68;;;3.13;;
6823;SDS011;58633;49.470;11.004;2022-08-11T07:57:38;3.15;;;2.70;;
6823;SDS011;58633;49.470;11.004;2022-08-11T08:00:25;5.60;;;2.63;;
6823;SDS011;58633;49.470;11.004;2022-08-11T08:03:09;3.25;;;2.30;;
6823;SDS011;58633;49.470;11.004;2022-08-11T08:05:53;3.33;;;2.50;;
6823;SDS011;58633;49.470;11.004;2022-08-11T08:08:39;3.95;;;2.40;;
6823;SDS011;58633;49.470;11.004;2022-08-11T08:11:24;3.22;;;2.45;;
6823;SDS011;58633;49.470;11.004;2022-08-11T08:14:10;4.75;;;2.63;;
6823;SDS011;58633;49.470;11.004;2022-08-11T08:16:55;2.40;;;2.30;;
6823;SDS011;58633;49.470;11.004;2022-08-11T08:19:45;3.33;;;2.70;;
6823;SDS011;58633;49.470;11.004;2022-08-11T08:22:14;5.53;;;2.45;;
6823;SDS011;58633;49.470;11.004;2022-08-11T08:24:42;2.50;;;2.30;;
6823;SDS011;58633;49.470;11.004;2022-08-11T08:27:08;4.20;;;2.45;;
6823;SDS011;58633;49.470;11.004;2022-08-11T08:29:38;3.10;;;2.40;;
6823;SDS011;58633;49.470;11.004;2022-08-11T08:32:23;3.17;;;2.22;;
6823;SDS011;58633;49.470;11.004;2022-08-11T08:34:52;3.97;;;2.30;;
6823;SDS011;58633;49.470;11.004;2022-08-11T08:37:20;2.35;;;2.17;;
6823;SDS011;58633;49.470;11.004;2022-08-11T08:39:52;3.05;;;2.25;;
6823;SDS011;58633;49.470;11.004;2022-08-11T08:42:27;10.00;;;3.15;;
6823;SDS011;58633;49.470;11.004;2022-08-11T08:45:07;3.58;;;2.25;;
6823;SDS011;58633;49.470;11.004;2022-08-11T08:47:35;2.80;;;2.28;;
6823;SDS011;58633;49.470;11.004;2022-08-11T08:50:33;2.47;;;2.22;;
6823;SDS011;58633;49.470;11.004;2022-08-11T08:53:39;5.35;;;2.95;;
6823;SDS011;58633;49.470;11.004;2022-08-11T08:56:10;20.05;;;4.72;;
6823;SDS011;58633;49.470;11.004;2022-08-11T08:58:36;8.18;;;2.60;;
6823;SDS011;58633;49.470;11.004;2022-08-11T09:01:06;2.83;;;2.20;;
6823;SDS011;58633;49.470;11.004;2022-08-11T09:03:35;2.17;;;2.05;;
6823;SDS011;58633;49.470;11.004;2022-08-11T09:06:02;4.30;;;2.20;;
6823;SDS011;58633;49.470;11.004;2022-08-11T09:08:30;2.10;;;1.90;;
6823;SDS011;58633;49.470;11.004;2022-08-11T09:10:56;4.28;;;2.40;;
6823;SDS011;58633;49.470;11.004;2022-08-11T09:13:41;3.35;;;2.30;;
6823;SDS011;58633;49.470;11.004;2022-08-11T09:16:09;3.25;;;2.22;;
6823;SDS011;58633;49.470;11.004;2022-08-11T09:18:37;3.65;;;2.45;;
6823;SDS011;58633;49.470;11.004;2022-08-11T09:21:05;3.22;;;2.35;;
6823;SDS011;58633;49.470;11.004;2022-08-11T09:23:32;3.70;;;1.98;;
6823;SDS011;58633;49.470;11.004;2022-08-11T09:26:16;2.15;;;1.85;;
6823;SDS011;58633;49.470;11.004;2022-08-11T09:29:01;2.00;;;1.90;;
6823;SDS011;58633;49.470;11.004;2022-08-11T09:31:29;4.15;;;2.22;;
6823;SDS011;58633;49.470;11.004;2022-08-11T09:33:57;2.70;;;2.05;;
6823;SDS011;58633;49.470;11.004;2022-08-11T09:36:23;4.00;;;2.13;;
6823;SDS011;58633;49.470;11.004;2022-08-11T09:39:09;2.78;;;2.17;;
6823;SDS011;58633;49.470;11.004;2022-08-11T09:41:55;4.65;;;2.30;;
6823;SDS011;58633;49.470;11.004;2022-08-11T09:44:21;2.75;;;2.03;;
6823;SDS011;58633;49.470;11.004;2022-08-11T09:47:05;4.68;;;2.35;;
6823;SDS011;58633;49.470;11.004;2022-08-11T09:49:37;2.30;;;2.10;;
6823;SDS011;58633;49.470;11.004;2022-08-11T09:52:03;2.63;;;2.30;;
6823;SDS011;58633;49.470;11.004;2022-08-11T09:54:33;2.95;;;2.30;;
6823;SDS011;58633;49.470;11.004;2022-08-11T09:56:59;2.55;;;2.20;;
6823;SDS011;58633;49.470;11.004;2022-08-11T09:59:43;1.92;;;1.83;;
6823;SDS011;58633;49.470;11.004;2022-08-11T10:02:10;3.00;;;2.00;;
6823;SDS011;58633;49.470;11.004;2022-08-11T10:04:40;5.15;;;2.42;;
6823;SDS011;58633;49.470;11.004;2022-08-11T10:07:09;3.40;;;1.90;;
6823;SDS011;58633;49.470;11.004;2022-08-11T10:09:41;2.35;;;2.00;;
6823;SDS011;58633;49.470;11.004;2022-08-11T10:12:37;5.38;;;2.22;;
6823;SDS011;58633;49.470;11.004;2022-08-11T10:15:10;3.58;;;2.10;;
6823;SDS011;58633;49.470;11.004;2022-08-11T10:21:37;3.50;;;2.20;;
6823;SDS011;58633;49.470;11.004;2022-08-11T10:24:00;2.22;;;1.80;;
6823;SDS011;58633;49.470;11.004;2022-08-11T10:26:46;3.78;;;2.05;;
6823;SDS011;58633;49.470;11.004;2022-08-11T10:29:22;2.38;;;1.92;;
6823;SDS011;58633;49.470;11.004;2022-08-11T10:32:09;2.38;;;2.17;;
6823;SDS011;58633;49.470;11.004;2022-08-11T10:34:56;2.42;;;1.80;;
6823;SDS011;58633;49.470;11.004;2022-08-11T10:37:23;2.03;;;1.92;;
6823;SDS011;58633;49.470;11.004;2022-08-11T10:39:51;2.10;;;1.88;;
6823;SDS011;58633;49.470;11.004;2022-08-11T10:42:20;4.90;;;2.00;;
6823;SDS011;58633;49.470;11.004;2022-08-11T10:45:05;2.13;;;2.00;;
6823;SDS011;58633;49.470;11.004;2022-08-11T10:47:54;8.43;;;2.03;;
6823;SDS011;58633;49.470;11.004;2022-08-11T10:50:21;6.40;;;2.40;;
6823;SDS011;58633;49.470;11.004;2022-08-11T10:53:08;2.15;;;1.92;;
6823;SDS011;58633;49.470;11.004;2022-08-11T10:55:53;1.88;;;1.77;;
6823;SDS011;58633;49.470;11.004;2022-08-11T10:58:38;2.42;;;2.00;;
6823;SDS011;58633;49.470;11.004;2022-08-11T11:01:21;5.13;;;2.30;;
6823;SDS011;58633;49.470;11.004;2022-08-11T11:03:55;2.10;;;2.00;;
6823;SDS011;58633;49.470;11.004;2022-08-11T11:06:45;2.25;;;2.05;;
6823;SDS011;58633;49.470;11.004;2022-08-11T11:09:18;2.33;;;1.98;;
6823;SDS011;58633;49.470;11.004;2022-08-11T11:11:48;1.80;;;1.70;;
6823;SDS011;58633;49.470;11.004;2022-08-11T11:14:35;3.72;;;1.90;;
6823;SDS011;58633;49.470;11.004;2022-08-11T11:17:32;1.90;;;1.60;;
6823;SDS011;58633;49.470;11.004;2022-08-11T11:20:24;2.05;;;1.60;;
6823;SDS011;58633;49.470;11.004;2022-08-11T11:22:54;2.22;;;1.55;;
6823;SDS011;58633;49.470;11.004;2022-08-11T11:31:20;2.92;;;1.70;;
6823;SDS011;58633;49.470;11.004;2022-08-11T11:36:58;3.08;;;1.70;;
6823;SDS011;58633;49.470;11.004;2022-08-11T11:39:30;3.63;;;1.63;;
6823;SDS011;58633;49.470;11.004;2022-08-11T11:41:58;5.78;;;1.70;;
6823;SDS011;58633;49.470;11.004;2022-08-11T11:44:27;7.00;;;2.00;;
6823;SDS011;58633;49.470;11.004;2022-08-11T11:46:54;2.35;;;1.65;;
6823;SDS011;58633;49.470;11.004;2022-08-11T11:49:22;2.85;;;1.42;;
6823;SDS011;58633;49.470;11.004;2022-08-11T11:51:51;1.70;;;1.60;;
6823;SDS011;58633;49.470;11.004;2022-08-11T11:54:22;2.20;;;1.70;;
6823;SDS011;58633;49.470;11.004;2022-08-11T11:56:57;3.50;;;1.70;;
6823;SDS011;58633;49.470;11.004;2022-08-11T11:59:45;2.78;;;1.67;;
6823;SDS011;58633;49.470;11.004;2022-08-11T12:02:32;4.45;;;1.90;;
6823;SDS011;58633;49.470;11.004;2022-08-11T12:05:00;3.42;;;1.90;;
6823;SDS011;58633;49.470;11.004;2022-08-11T12:07:28;6.88;;;1.50;;
6823;SDS011;58633;49.470;11.004;2022-08-11T12:10:13;3.22;;;1.60;;
6823;SDS011;58633;49.470;11.004;2022-08-11T12:12:41;2.97;;;1.63;;
6823;SDS011;58633;49.470;11.004;2022-08-11T12:15:26;5.18;;;1.60;;
6823;SDS011;58633;49.470;11.004;2022-08-11T12:17:51;2.75;;;1.60;;
6823;SDS011;58633;49.470;11.004;2022-08-11T12:20:17;3.03;;;1.33;;
6823;SDS011;58633;49.470;11.004;2022-08-11T12:22:45;1.95;;;1.50;;
6823;SDS011;58633;49.470;11.004;2022-08-11T12:25:30;4.03;;;1.70;;
6823;SDS011;58633;49.470;11.004;2022-08-11T12:28:14;2.40;;;1.80;;
6823;SDS011;58633;49.470;11.004;2022-08-11T12:30:40;2.95;;;1.60;;
6823;SDS011;58633;49.470;11.004;2022-08-11T12:33:09;3.05;;;1.65;;
6823;SDS011;58633;49.470;11.004;2022-08-11T12:35:34;2.30;;;1.60;;
6823;SDS011;58633;49.470;11.004;2022-08-11T12:38:02;4.18;;;1.50;;
6823;SDS011;58633;49.470;11.004;2022-08-11T12:40:29;1.55;;;1.40;;
6823;SDS011;58633;49.470;11.004;2022-08-11T12:43:17;2.47;;;1.88;;
6823;SDS011;58633;49.470;11.004;2022-08-11T12:46:15;2.35;;;1.45;;
6823;SDS011;58633;49.470;11.004;2022-08-11T12:48:55;1.67;;;1.50;;
6823;SDS011;58633;49.470;11.004;2022-08-11T12:51:41;2.05;;;1.70;;
6823;SDS011;58633;49.470;11.004;2022-08-11T13:00:18;5.00;;;1.60;;
6823;SDS011;58633;49.470;11.004;2022-08-11T13:03:04;3.00;;;1.80;;
6823;SDS011;58633;49.470;11.004;2022-08-11T13:05:51;1.60;;;1.50;;
6823;SDS011;58633;49.470;11.004;2022-08-11T13:08:21;2.17;;;1.52;;
6823;SDS011;58633;49.470;11.004;2022-08-11T13:10:49;2.45;;;1.50;;
6823;SDS011;58633;49.470;11.004;2022-08-11T13:13:34;2.53;;;1.80;;
6823;SDS011;58633;49.470;11.004;2022-08-11T13:16:00;2.10;;;1.60;;
6823;SDS011;58633;49.470;11.004;2022-08-11T13:18:27;1.52;;;1.40;;
6823;SDS011;58633;49.470;11.004;2022-08-11T13:20:53;1.85;;;1.58;;
6823;SDS011;58633;49.470;11.004;2022-08-11T13:23:21;2.53;;;1.40;;
6823;SDS011;58633;49.470;11.004;2022-08-11T13:25:48;4.00;;;1.60;;
6823;SDS011;58633;49.470;11.004;2022-08-11T13:28:15;3.00;;;1.42;;
6823;SDS011;58633;49.470;11.004;2022-08-11T13:30:46;2.72;;;1.45;;
6823;SDS011;58633;49.470;11.004;2022-08-11T13:33:32;1.70;;;1.60;;
6823;SDS011;58633;49.470;11.004;2022-08-11T13:36:00;2.10;;;1.63;;
6823;SDS011;58633;49.470;11.004;2022-08-11T13:38:28;1.60;;;1.50;;
6823;SDS011;58633;49.470;11.004;2022-08-11T13:40:56;1.25;;;1.25;;
6823;SDS011;58633;49.470;11.004;2022-08-11T13:43:22;3.72;;;1.70;;
6823;SDS011;58633;49.470;11.004;2022-08-11T13:45:48;2.40;;;1.45;;
6823;SDS011;58633;49.470;11.004;2022-08-11T13:48:17;2.40;;;1.50;;
6823;SDS011;58633;49.470;11.004;2022-08-11T13:50:43;1.75;;;1.50;;
6823;SDS011;58633;49.470;11.004;2022-08-11T13:53:28;4.03;;;1.60;;
6823;SDS011;58633;49.470;11.004;2022-08-11T13:55:54;1.55;;;1.48;;
6823;SDS011;58633;49.470;11.004;2022-08-11T13:58:23;1.80;;;1.70;;
6823;SDS011;58633;49.470;11.004;2022-08-11T14:00:50;3.20;;;1.40;;
6823;SDS011;58633;49.470;11.004;2022-08-11T14:03:18;3.25;;;2.05;;
6823;SDS011;58633;49.470;11.004;2022-08-11T14:05:48;1.60;;;1.50;;
6823;SDS011;58633;49.470;11.004;2022-08-11T14:08:19;1.55;;;1.45;;
6823;SDS011;58633;49.470;11.004;2022-08-11T14:10:49;2.28;;;1.50;;
6823;SDS011;58633;49.470;11.004;2022-08-11T14:13:37;1.60;;;1.50;;
6823;SDS011;58633;49.470;11.004;2022-08-11T14:16:07;2.15;;;1.40;;
6823;SDS011;58633;49.470;11.004;2022-08-11T14:18:39;3.58;;;1.60;;
6823;SDS011;58633;49.470;11.004;2022-08-11T14:21:08;2.55;;;1.60;;
6823;SDS011;58633;49.470;11.004;2022-08-11T14:23:55;1.65;;;1.40;;
6823;SDS011;58633;49.470;11.004;2022-08-11T14:26:23;1.75;;;1.65;;
6823;SDS011;58633;49.470;11.004;2022-08-11T14:31:24;3.83;;;1.40;;
6823;SDS011;58633;49.470;11.004;2022-08-11T14:33:52;3.60;;;1.60;;
6823;SDS011;58633;49.470;11.004;2022-08-11T14:36:20;2.25;;;1.60;;
6823;SDS011;58633;49.470;11.004;2022-08-11T14:38:49;1.67;;;1.55;;
6823;SDS011;58633;49.470;11.004;2022-08-11T14:41:15;1.60;;;1.50;;
6823;SDS011;58633;49.470;11.004;2022-08-11T14:44:01;2.38;;;1.40;;
6823;SDS011;58633;49.470;11.004;2022-08-11T14:46:46;1.60;;;1.50;;
6823;SDS011;58633;49.470;11.004;2022-08-11T14:49:28;2.45;;;1.58;;
6823;SDS011;58633;49.470;11.004;2022-08-11T14:51:56;2.63;;;1.60;;
6823;SDS011;58633;49.470;11.004;2022-08-11T14:54:27;2.25;;;1.70;;
6823;SDS011;58633;49.470;11.004;2022-08-11T14:57:17;2.28;;;1.92;;
6823;SDS011;58633;49.470;11.004;2022-08-11T14:59:44;3.72;;;1.55;;
6823;SDS011;58633;49.470;11.004;2022-08-11T15:02:12;1.80;;;1.70;;
6823;SDS011;58633;49.470;11.004;2022-08-11T15:04:58;1.48;;;1.38;;
6823;SDS011;58633;49.470;11.004;2022-08-11T15:07:27;1.85;;;1.48;;
6823;SDS011;58633;49.470;11.004;2022-08-11T15:10:06;2.13;;;1.52;;
6823;SDS011;58633;49.470;11.004;2022-08-11T15:12:34;2.13;;;1.85;;
6823;SDS011;58633;49.470;11.004;2022-08-11T15:15:01;3.20;;;1.60;;
6823;SDS011;58633;49.470;11.004;2022-08-11T15:17:47;6.28;;;1.75;;
6823;SDS011;58633;49.470;11.004;2022-08-11T15:20:16;1.80;;;1.60;;
6823;SDS011;58633;49.470;11.004;2022-08-11T15:23:03;1.45;;;1.40;;
6823;SDS011;58633;49.470;11.004;2022-08-11T15:25:50;3.67;;;1.40;;
6823;SDS011;58633;49.470;11.004;2022-08-11T15:28:22;4.70;;;1.60;;
6823;SDS011;58633;49.470;11.004;2022-08-11T15:31:09;2.10;;;2.00;;
6823;SDS011;58633;49.470;11.004;2022-08-11T15:33:53;2.55;;;1.80;;
6823;SDS011;58633;49.470;11.004;2022-08-11T15:36:40;1.83;;;1.48;;
6823;SDS011;58633;49.470;11.004;2022-08-11T15:39:30;2.88;;;1.60;;
6823;SDS011;58633;49.470;11.004;2022-08-11T15:42:00;3.53;;;1.80;;
6823;SDS011;58633;49.470;11.004;2022-08-11T15:44:49;1.90;;;1.65;;
6823;SDS011;58633;49.470;11.004;2022-08-11T15:47:40;4.50;;;1.90;;
6823;SDS011;58633;49.470;11.004;2022-08-11T15:50:07;2.65;;;1.55;;
6823;SDS011;58633;49.470;11.004;2022-08-11T15:52:42;2.13;;;1.50;;
6823;SDS011;58633;49.470;11.004;2022-08-11T15:55:22;1.77;;;1.58;;
6823;SDS011;58633;49.470;11.004;2022-08-11T15:57:49;1.50;;;1.40;;
6823;SDS011;58633;49.470;11.004;2022-08-11T16:00:36;2.92;;;1.88;;
6823;SDS011;58633;49.470;11.004;2022-08-11T16:03:22;2.03;;;1.67;;
6823;SDS011;58633;49.470;11.004;2022-08-11T16:06:10;1.70;;;1.60;;
6823;SDS011;58633;49.470;11.004;2022-08-11T16:08:38;2.45;;;2.00;;
6823;SDS011;58633;49.470;11.004;2022-08-11T16:11:05;2.17;;;1.70;;
6823;SDS011;58633;49.470;11.004;2022-08-11T16:13:33;1.70;;;1.60;;
6823;SDS011;58633;49.470;11.004;2022-08-11T16:16:00;3.47;;;2.05;;
6823;SDS011;58633;49.470;11.004;2022-08-11T16:18:50;2.47;;;1.90;;
6823;SDS011;58633;49.470;11.004;2022-08-11T16:21:25;2.75;;;1.88;;
6823;SDS011;58633;49.470;11.004;2022-08-11T16:23:54;1.70;;;1.60;;
6823;SDS011;58633;49.470;11.004;2022-08-11T16:26:23;3.20;;;1.70;;
6823;SDS011;58633;49.470;11.004;2022-08-11T16:28:54;1.80;;;1.70;;
6823;SDS011;58633;49.470;11.004;2022-08-11T16:31:24;2.05;;;1.80;;
6823;SDS011;58633;49.470;11.004;2022-08-11T16:33:52;1.50;;;1.35;;
6823;SDS011;58633;49.470;11.004;2022-08-11T16:36:19;1.95;;;1.70;;
6823;SDS011;58633;49.470;11.004;2022-08-11T16:39:05;2.63;;;1.67;;
6823;SDS011;58633;49.470;11.004;2022-08-11T16:41:32;1.90;;;1.80;;
6823;SDS011;58633;49.470;11.004;2022-08-11T16:44:18;2.03;;;1.92;;
6823;SDS011;58633;49.470;11.004;2022-08-11T16:47:09;2.17;;;1.75;;
6823;SDS011;58633;49.470;11.004;2022-08-11T16:49:39;2.03;;;1.58;;
6823;SDS011;58633;49.470;11.004;2022-08-11T16:52:10;2.72;;;1.90;;
6823;SDS011;58633;49.470;11.004;2022-08-11T16:54:36;7.32;;;1.88;;
6823;SDS011;58633;49.470;11.004;2022-08-11T16:57:08;1.98;;;1.60;;
6823;SDS011;58633;49.470;11.004;2022-08-11T17:00:06;2.20;;;1.73;;
6823;SDS011;58633;49.470;11.004;2022-08-11T17:02:36;2.25;;;1.80;;
6823;SDS011;58633;49.470;11.004;2022-08-11T17:05:25;3.20;;;1.75;;
6823;SDS011;58633;49.470;11.004;2022-08-11T17:08:10;2.25;;;1.75;;
6823;SDS011;58633;49.470;11.004;2022-08-11T17:10:58;1.65;;;1.40;;
6823;SDS011;58633;49.470;11.004;2022-08-11T17:13:54;5.38;;;1.75;;
6823;SDS011;58633;49.470;11.004;2022-08-11T17:16:23;2.50;;;1.95;;
6823;SDS011;58633;49.470;11.004;2022-08-11T17:18:56;3.58;;;1.75;;
6823;SDS011;58633;49.470;11.004;2022-08-11T17:21:29;3.30;;;1.50;;
6823;SDS011;58633;49.470;11.004;2022-08-11T17:23:58;2.85;;;1.65;;
6823;SDS011;58633;49.470;11.004;2022-08-11T17:26:29;3.13;;;1.50;;
6823;SDS011;58633;49.470;11.004;2022-08-11T17:29:17;2.25;;;1.60;;
6823;SDS011;58633;49.470;11.004;2022-08-11T17:31:47;2.50;;;2.08;;
6823;SDS011;58633;49.470;11.004;2022-08-11T17:34:32;2.50;;;2.00;;
6823;SDS011;58633;49.470;11.004;2022-08-11T17:37:17;5.75;;;1.67;;
6823;SDS011;58633;49.470;11.004;2022-08-11T17:39:46;1.88;;;1.70;;
6823;SDS011;58633;49.470;11.004;2022-08-11T17:42:12;1.60;;;1.50;;
6823;SDS011;58633;49.470;11.004;2022-08-11T17:44:58;1.90;;;1.75;;
6823;SDS011;58633;49.470;11.004;2022-08-11T17:47:44;3.15;;;1.60;;
6823;SDS011;58633;49.470;11.004;2022-08-11T17:50:29;2.80;;;1.67;;
6823;SDS011;58633;49.470;11.004;2022-08-11T17:52:56;3.60;;;1.90;;
6823;SDS011;58633;49.470;11.004;2022-08-11T17:55:42;5.10;;;1.85;;
6823;SDS011;58633;49.470;11.004;2022-08-11T17:58:27;3.47;;;2.22;;
6823;SDS011;58633;49.470;11.004;2022-08-11T18:01:12;3.05;;;1.83;;
6823;SDS011;58633;49.470;11.004;2022-08-11T18:03:40;2.00;;;1.80;;
6823;SDS011;58633;49.470;11.004;2022-08-11T18:06:09;4.32;;;1.85;;
6823;SDS011;58633;49.470;11.004;2022-08-11T18:08:37;2.30;;;2.10;;
6823;SDS011;58633;49.470;11.004;2022-08-11T18:11:25;2.42;;;2.00;;
6823;SDS011;58633;49.470;11.004;2022-08-11T18:14:13;2.78;;;2.05;;
6823;SDS011;58633;49.470;11.004;2022-08-11T18:16:58;3.08;;;2.10;;
6823;SDS011;58633;49.470;11.004;2022-08-11T18:19:42;3.63;;;2.10;;
6823;SDS011;58633;49.470;11.004;2022-08-11T18:22:29;3.83;;;1.92;;
6823;SDS011;58633;49.470;11.004;2022-08-11T18:25:22;4.00;;;2.20;;
6823;SDS011;58633;49.470;11.004;2022-08-11T18:28:10;2.20;;;2.00;;
6823;SDS011;58633;49.470;11.004;2022-08-11T18:30:58;4.88;;;1.95;;
6823;SDS011;58633;49.470;11.004;2022-08-11T18:33:52;2.83;;;2.17;;
6823;SDS011;58633;49.470;11.004;2022-08-11T18:36:46;5.00;;;2.30;;
6823;SDS011;58633;49.470;11.004;2022-08-11T18:39:35;2.40;;;1.80;;
6823;SDS011;58633;49.470;11.004;2022-08-11T18:42:26;3.63;;;2.10;;
6823;SDS011;58633;49.470;11.004;2022-08-11T18:45:14;4.45;;;2.60;;
6823;SDS011;58633;49.470;11.004;2022-08-11T18:48:02;2.90;;;2.15;;
6823;SDS011;58633;49.470;11.004;2022-08-11T18:50:51;2.35;;;2.15;;
6823;SDS011;58633;49.470;11.004;2022-08-11T18:53:39;2.83;;;2.22;;
6823;SDS011;58633;49.470;11.004;2022-08-11T18:56:26;3.20;;;2.03;;
6823;SDS011;58633;49.470;11.004;2022-08-11T18:59:13;3.63;;;2.40;;
6823;SDS011;58633;49.470;11.004;2022-08-11T19:02:00;2.30;;;2.03;;
6823;SDS011;58633;49.470;11.004;2022-08-11T19:04:46;4.13;;;2.40;;
6823;SDS011;58633;49.470;11.004;2022-08-11T19:07:31;4.65;;;2.20;;
6823;SDS011;58633;49.470;11.004;2022-08-11T19:10:17;3.35;;;2.40;;